sensor_id;sensor_type;location;lat;lon;timestamp;P1;durP1;ratioP1;P2;durP2;ratioP2
54145;SDS011;40052;49.422;7.738;2022-08-18T00:02:15;7.63;;;5.28;;
54145;SDS011;40052;49.422;7.738;2022-08-18T00:04:46;7.38;;;5.13;;
54145;SDS011;40052;49.422;7.738;2022-08-18T00:07:13;5.88;;;5.28;;
54145;SDS011;40052;49.422;7.738;2022-08-18T00:09:41;6.00;;;5.20;;
54145;SDS011;40052;49.422;7.738;2022-08-18T00:12:12;8.63;;;5.80;;
54145;SDS011;40052;49.422;7.738;2022-08-18T00:14:41;6.43;;;4.82;;
54145;SDS011;40052;49.422;7.738;2022-08-18T00:17:10;5.93;;;5.32;;
54145;SDS011;40052;49.422;7.738;2022-08-18T00:19:35;6.60;;;5.90;;
54145;SDS011;40052;49.422;7.738;2022-08-18T00:22:01;6.45;;;5.72;;
54145;SDS011;40052;49.422;7.738;2022-08-18T00:24:28;7.05;;;5.18;;
54145;SDS011;40052;49.422;7.738;2022-08-18T00:26:55;6.32;;;5.45;;
54145;SDS011;40052;49.422;7.738;2022-08-18T00:29:23;6.20;;;5.57;;
54145;SDS011;40052;49.422;7.738;2022-08-18T00:31:49;6.07;;;5.45;;
54145;SDS011;40052;49.422;7.738;2022-08-18T00:34:15;6.65;;;4.88;;
54145;SDS011;40052;49.422;7.738;2022-08-18T00:36:41;6.20;;;5.60;;
54145;SDS011;40052;49.422;7.738;2022-08-18T00:39:07;6.45;;;5.85;;
54145;SDS011;40052;49.422;7.738;2022-08-18T00:41:37;5.93;;;5.38;;
54145;SDS011;40052;49.422;7.738;2022-08-18T00:44:05;6.65;;;5.95;;
54145;SDS011;40052;49.422;7.738;2022-08-18T00:46:32;7.15;;;5.75;;
54145;SDS011;40052;49.422;7.738;2022-08-18T00:49:07;5.53;;;5.03;;
54145;SDS011;40052;49.422;7.738;2022-08-18T00:51:39;6.70;;;5.53;;
54145;SDS011;40052;49.422;7.738;2022-08-18T00:56:51;6.53;;;5.32;;
54145;SDS011;40052;49.422;7.738;2022-08-18T00:59:28;6.22;;;4.70;;
54145;SDS011;40052;49.422;7.738;2022-08-18T01:02:02;6.07;;;5.47;;
54145;SDS011;40052;49.422;7.738;2022-08-18T01:04:36;5.78;;;5.15;;
54145;SDS011;40052;49.422;7.738;2022-08-18T01:07:13;6.75;;;4.45;;
54145;SDS011;40052;49.422;7.738;2022-08-18T01:09:45;6.05;;;5.35;;
54145;SDS011;40052;49.422;7.738;2022-08-18T01:12:17;6.63;;;4.75;;
54145;SDS011;40052;49.422;7.738;2022-08-18T01:14:43;6.20;;;5.20;;
54145;SDS011;40052;49.422;7.738;2022-08-18T01:17:11;6.78;;;4.97;;
54145;SDS011;40052;49.422;7.738;2022-08-18T01:19:59;6.38;;;5.00;;
54145;SDS011;40052;49.422;7.738;2022-08-18T01:25:11;9.75;;;5.07;;
54145;SDS011;40052;49.422;7.738;2022-08-18T01:27:55;6.55;;;5.18;;
54145;SDS011;40052;49.422;7.738;2022-08-18T01:30:26;8.75;;;6.00;;
54145;SDS011;40052;49.422;7.738;2022-08-18T01:32:58;7.72;;;5.60;;
54145;SDS011;40052;49.422;7.738;2022-08-18T01:35:25;5.90;;;4.95;;
54145;SDS011;40052;49.422;7.738;2022-08-18T01:37:54;6.97;;;5.75;;
54145;SDS011;40052;49.422;7.738;2022-08-18T01:40:20;6.63;;;5.65;;
54145;SDS011;40052;49.422;7.738;2022-08-18T01:42:48;6.03;;;5.22;;
54145;SDS011;40052;49.422;7.738;2022-08-18T01:45:14;8.35;;;5.13;;
54145;SDS011;40052;49.422;7.738;2022-08-18T01:47:41;6.40;;;5.47;;
54145;SDS011;40052;49.422;7.738;2022-08-18T01:50:08;7.15;;;4.97;;
54145;SDS011;40052;49.422;7.738;2022-08-18T01:52:37;6.43;;;5.82;;
54145;SDS011;40052;49.422;7.738;2022-08-18T01:55:06;8.35;;;5.80;;
54145;SDS011;40052;49.422;7.738;2022-08-18T01:57:37;6.57;;;5.55;;
54145;SDS011;40052;49.422;7.738;2022-08-18T02:00:09;8.02;;;6.13;;
54145;SDS011;40052;49.422;7.738;2022-08-18T02:02:35;7.85;;;5.78;;
54145;SDS011;40052;49.422;7.738;2022-08-18T02:05:04;8.35;;;5.95;;
54145;SDS011;40052;49.422;7.738;2022-08-18T02:10:07;6.47;;;5.40;;
54145;SDS011;40052;49.422;7.738;2022-08-18T02:12:36;7.65;;;5.55;;
54145;SDS011;40052;49.422;7.738;2022-08-18T02:15:05;8.25;;;6.57;;
54145;SDS011;40052;49.422;7.738;2022-08-18T02:17:42;9.40;;;5.65;;
54145;SDS011;40052;49.422;7.738;2022-08-18T02:20:10;7.80;;;5.68;;
54145;SDS011;40052;49.422;7.738;2022-08-18T02:22:38;10.40;;;6.25;;
54145;SDS011;40052;49.422;7.738;2022-08-18T02:25:04;7.35;;;5.72;;
54145;SDS011;40052;49.422;7.738;2022-08-18T02:27:30;9.20;;;5.93;;
54145;SDS011;40052;49.422;7.738;2022-08-18T02:29:57;7.50;;;6.40;;
54145;SDS011;40052;49.422;7.738;2022-08-18T02:32:24;6.18;;;5.55;;
54145;SDS011;40052;49.422;7.738;2022-08-18T02:34:50;6.68;;;5.95;;
54145;SDS011;40052;49.422;7.738;2022-08-18T02:37:15;7.38;;;5.40;;
54145;SDS011;40052;49.422;7.738;2022-08-18T02:39:45;9.45;;;5.63;;
54145;SDS011;40052;49.422;7.738;2022-08-18T02:42:11;6.30;;;5.55;;
54145;SDS011;40052;49.422;7.738;2022-08-18T02:44:38;8.00;;;6.15;;
54145;SDS011;40052;49.422;7.738;2022-08-18T02:47:04;9.15;;;5.63;;
54145;SDS011;40052;49.422;7.738;2022-08-18T02:49:30;8.15;;;5.90;;
54145;SDS011;40052;49.422;7.738;2022-08-18T02:51:58;8.75;;;6.30;;
54145;SDS011;40052;49.422;7.738;2022-08-18T02:54:24;8.93;;;6.60;;
54145;SDS011;40052;49.422;7.738;2022-08-18T02:56:50;7.55;;;6.38;;
54145;SDS011;40052;49.422;7.738;2022-08-18T02:59:19;6.20;;;5.53;;
54145;SDS011;40052;49.422;7.738;2022-08-18T03:01:51;7.10;;;5.93;;
54145;SDS011;40052;49.422;7.738;2022-08-18T03:04:21;7.82;;;6.22;;
54145;SDS011;40052;49.422;7.738;2022-08-18T03:06:53;8.35;;;6.60;;
54145;SDS011;40052;49.422;7.738;2022-08-18T03:09:20;10.98;;;6.40;;
54145;SDS011;40052;49.422;7.738;2022-08-18T03:11:48;8.68;;;7.07;;
54145;SDS011;40052;49.422;7.738;2022-08-18T03:14:17;7.95;;;6.38;;
54145;SDS011;40052;49.422;7.738;2022-08-18T03:16:44;7.68;;;6.78;;
54145;SDS011;40052;49.422;7.738;2022-08-18T03:19:14;9.57;;;7.10;;
54145;SDS011;40052;49.422;7.738;2022-08-18T03:21:40;10.82;;;7.28;;
54145;SDS011;40052;49.422;7.738;2022-08-18T03:24:07;9.25;;;7.00;;
54145;SDS011;40052;49.422;7.738;2022-08-18T03:26:39;8.43;;;6.85;;
54145;SDS011;40052;49.422;7.738;2022-08-18T03:29:09;7.45;;;6.28;;
54145;SDS011;40052;49.422;7.738;2022-08-18T03:31:37;10.35;;;7.13;;
54145;SDS011;40052;49.422;7.738;2022-08-18T03:34:04;8.70;;;6.70;;
54145;SDS011;40052;49.422;7.738;2022-08-18T03:36:32;7.65;;;6.45;;
54145;SDS011;40052;49.422;7.738;2022-08-18T03:39:02;9.88;;;6.80;;
54145;SDS011;40052;49.422;7.738;2022-08-18T03:41:29;11.02;;;7.07;;
54145;SDS011;40052;49.422;7.738;2022-08-18T03:44:00;9.90;;;6.85;;
54145;SDS011;40052;49.422;7.738;2022-08-18T03:46:27;10.48;;;6.82;;
54145;SDS011;40052;49.422;7.738;2022-08-18T03:48:55;7.30;;;6.47;;
54145;SDS011;40052;49.422;7.738;2022-08-18T03:51:27;9.68;;;7.65;;
54145;SDS011;40052;49.422;7.738;2022-08-18T03:53:56;8.25;;;6.93;;
54145;SDS011;40052;49.422;7.738;2022-08-18T03:56:26;9.20;;;7.22;;
54145;SDS011;40052;49.422;7.738;2022-08-18T03:58:58;6.65;;;5.95;;
54145;SDS011;40052;49.422;7.738;2022-08-18T04:01:31;7.85;;;7.05;;
54145;SDS011;40052;49.422;7.738;2022-08-18T04:04:01;8.63;;;6.43;;
54145;SDS011;40052;49.422;7.738;2022-08-18T04:06:33;9.20;;;6.28;;
54145;SDS011;40052;49.422;7.738;2022-08-18T04:09:06;9.20;;;7.55;;
54145;SDS011;40052;49.422;7.738;2022-08-18T04:11:35;9.82;;;6.88;;
54145;SDS011;40052;49.422;7.738;2022-08-18T04:14:02;7.88;;;6.35;;
54145;SDS011;40052;49.422;7.738;2022-08-18T04:16:33;7.85;;;6.90;;
54145;SDS011;40052;49.422;7.738;2022-08-18T04:19:02;8.77;;;6.50;;
54145;SDS011;40052;49.422;7.738;2022-08-18T04:21:29;7.30;;;6.60;;
54145;SDS011;40052;49.422;7.738;2022-08-18T04:23:57;10.65;;;6.53;;
54145;SDS011;40052;49.422;7.738;2022-08-18T04:26:30;7.80;;;7.00;;
54145;SDS011;40052;49.422;7.738;2022-08-18T04:28:57;7.68;;;6.88;;
54145;SDS011;40052;49.422;7.738;2022-08-18T04:31:25;7.53;;;6.47;;
54145;SDS011;40052;49.422;7.738;2022-08-18T04:33:51;9.07;;;7.38;;
54145;SDS011;40052;49.422;7.738;2022-08-18T04:36:22;7.93;;;6.90;;
54145;SDS011;40052;49.422;7.738;2022-08-18T04:38:51;8.05;;;6.57;;
54145;SDS011;40052;49.422;7.738;2022-08-18T04:41:19;8.57;;;7.53;;
54145;SDS011;40052;49.422;7.738;2022-08-18T04:43:51;10.52;;;7.15;;
54145;SDS011;40052;49.422;7.738;2022-08-18T04:46:23;7.55;;;6.53;;
54145;SDS011;40052;49.422;7.738;2022-08-18T04:48:50;9.27;;;7.57;;
54145;SDS011;40052;49.422;7.738;2022-08-18T04:51:23;7.57;;;6.80;;
54145;SDS011;40052;49.422;7.738;2022-08-18T04:53:52;8.93;;;6.55;;
54145;SDS011;40052;49.422;7.738;2022-08-18T04:58:49;7.18;;;6.22;;
54145;SDS011;40052;49.422;7.738;2022-08-18T05:01:17;8.88;;;7.43;;
54145;SDS011;40052;49.422;7.738;2022-08-18T05:03:45;8.15;;;6.38;;
54145;SDS011;40052;49.422;7.738;2022-08-18T05:06:12;8.43;;;6.93;;
54145;SDS011;40052;49.422;7.738;2022-08-18T05:08:37;9.93;;;6.95;;
54145;SDS011;40052;49.422;7.738;2022-08-18T05:11:05;8.68;;;7.32;;
54145;SDS011;40052;49.422;7.738;2022-08-18T05:13:36;10.43;;;6.95;;
54145;SDS011;40052;49.422;7.738;2022-08-18T05:16:06;9.57;;;7.30;;
54145;SDS011;40052;49.422;7.738;2022-08-18T05:18:32;9.38;;;7.40;;
54145;SDS011;40052;49.422;7.738;2022-08-18T05:21:04;8.75;;;7.65;;
54145;SDS011;40052;49.422;7.738;2022-08-18T05:23:35;10.27;;;8.38;;
54145;SDS011;40052;49.422;7.738;2022-08-18T05:26:01;10.32;;;8.60;;
54145;SDS011;40052;49.422;7.738;2022-08-18T05:28:28;15.48;;;8.65;;
54145;SDS011;40052;49.422;7.738;2022-08-18T05:33:40;10.52;;;7.82;;
54145;SDS011;40052;49.422;7.738;2022-08-18T05:41:10;8.90;;;7.90;;
54145;SDS011;40052;49.422;7.738;2022-08-18T05:43:44;9.10;;;7.30;;
54145;SDS011;40052;49.422;7.738;2022-08-18T05:46:13;10.95;;;7.88;;
54145;SDS011;40052;49.422;7.738;2022-08-18T05:48:39;10.38;;;8.02;;
54145;SDS011;40052;49.422;7.738;2022-08-18T05:51:13;10.82;;;8.10;;
54145;SDS011;40052;49.422;7.738;2022-08-18T05:53:47;9.30;;;7.72;;
54145;SDS011;40052;49.422;7.738;2022-08-18T05:56:33;9.90;;;8.75;;
54145;SDS011;40052;49.422;7.738;2022-08-18T05:59:32;8.38;;;7.47;;
54145;SDS011;40052;49.422;7.738;2022-08-18T06:02:24;9.70;;;8.15;;
54145;SDS011;40052;49.422;7.738;2022-08-18T06:05:00;9.45;;;7.50;;
54145;SDS011;40052;49.422;7.738;2022-08-18T06:10:00;11.38;;;9.10;;
54145;SDS011;40052;49.422;7.738;2022-08-18T06:12:34;13.15;;;9.73;;
54145;SDS011;40052;49.422;7.738;2022-08-18T06:15:15;8.35;;;7.28;;
54145;SDS011;40052;49.422;7.738;2022-08-18T06:18:09;10.38;;;8.02;;
54145;SDS011;40052;49.422;7.738;2022-08-18T06:33:01;16.75;;;13.55;;
54145;SDS011;40052;49.422;7.738;2022-08-18T06:41:22;15.65;;;12.07;;
54145;SDS011;40052;49.422;7.738;2022-08-18T06:52:16;17.60;;;12.35;;
54145;SDS011;40052;49.422;7.738;2022-08-18T06:55:06;17.60;;;13.35;;
54145;SDS011;40052;49.422;7.738;2022-08-18T06:57:55;18.15;;;13.45;;
54145;SDS011;40052;49.422;7.738;2022-08-18T07:00:30;17.52;;;13.50;;
54145;SDS011;40052;49.422;7.738;2022-08-18T07:03:11;17.67;;;14.43;;
54145;SDS011;40052;49.422;7.738;2022-08-18T07:06:01;21.35;;;14.13;;
54145;SDS011;40052;49.422;7.738;2022-08-18T07:08:30;18.75;;;14.43;;
54145;SDS011;40052;49.422;7.738;2022-08-18T07:11:40;19.63;;;14.40;;
54145;SDS011;40052;49.422;7.738;2022-08-18T07:13:49;18.75;;;13.80;;
54145;SDS011;40052;49.422;7.738;2022-08-18T07:16:38;21.50;;;14.98;;
54145;SDS011;40052;49.422;7.738;2022-08-18T07:19:13;24.65;;;16.25;;
54145;SDS011;40052;49.422;7.738;2022-08-18T07:21:45;21.02;;;14.90;;
54145;SDS011;40052;49.422;7.738;2022-08-18T07:24:27;23.40;;;17.33;;
54145;SDS011;40052;49.422;7.738;2022-08-18T07:29:26;25.58;;;17.38;;
54145;SDS011;40052;49.422;7.738;2022-08-18T07:31:54;21.95;;;15.02;;
54145;SDS011;40052;49.422;7.738;2022-08-18T07:34:25;20.10;;;15.05;;
54145;SDS011;40052;49.422;7.738;2022-08-18T07:37:00;22.48;;;16.50;;
54145;SDS011;40052;49.422;7.738;2022-08-18T07:39:37;21.23;;;16.15;;
54145;SDS011;40052;49.422;7.738;2022-08-18T07:42:08;21.55;;;15.93;;
54145;SDS011;40052;49.422;7.738;2022-08-18T07:47:33;24.60;;;16.98;;
54145;SDS011;40052;49.422;7.738;2022-08-18T07:50:05;25.10;;;17.00;;
54145;SDS011;40052;49.422;7.738;2022-08-18T07:52:37;23.73;;;17.17;;
54145;SDS011;40052;49.422;7.738;2022-08-18T07:55:26;23.52;;;17.52;;
54145;SDS011;40052;49.422;7.738;2022-08-18T08:11:07;23.05;;;16.52;;
54145;SDS011;40052;49.422;7.738;2022-08-18T08:13:45;21.83;;;15.57;;
54145;SDS011;40052;49.422;7.738;2022-08-18T08:19:04;21.20;;;15.50;;
54145;SDS011;40052;49.422;7.738;2022-08-18T08:21:47;23.45;;;16.23;;
54145;SDS011;40052;49.422;7.738;2022-08-18T08:24:36;19.85;;;15.55;;
54145;SDS011;40052;49.422;7.738;2022-08-18T08:30:02;21.17;;;15.05;;
54145;SDS011;40052;49.422;7.738;2022-08-18T08:32:50;21.23;;;15.45;;
54145;SDS011;40052;49.422;7.738;2022-08-18T08:38:20;21.20;;;15.50;;
54145;SDS011;40052;49.422;7.738;2022-08-18T08:40:57;21.73;;;15.30;;
54145;SDS011;40052;49.422;7.738;2022-08-18T08:43:44;22.48;;;16.35;;
54145;SDS011;40052;49.422;7.738;2022-08-18T08:46:18;23.50;;;17.08;;
54145;SDS011;40052;49.422;7.738;2022-08-18T08:48:51;21.02;;;15.65;;
54145;SDS011;40052;49.422;7.738;2022-08-18T08:51:37;21.95;;;15.75;;
54145;SDS011;40052;49.422;7.738;2022-08-18T08:57:16;24.67;;;16.48;;
54145;SDS011;40052;49.422;7.738;2022-08-18T08:59:43;21.73;;;16.42;;
54145;SDS011;40052;49.422;7.738;2022-08-18T09:22:03;23.80;;;16.83;;
54145;SDS011;40052;49.422;7.738;2022-08-18T09:24:37;21.75;;;15.40;;
54145;SDS011;40052;49.422;7.738;2022-08-18T09:40:51;21.60;;;16.02;;
54145;SDS011;40052;49.422;7.738;2022-08-18T09:51:46;23.90;;;16.05;;
54145;SDS011;40052;49.422;7.738;2022-08-18T09:54:17;19.58;;;14.70;;
54145;SDS011;40052;49.422;7.738;2022-08-18T10:01:56;19.58;;;15.55;;
54145;SDS011;40052;49.422;7.738;2022-08-18T10:04:30;22.90;;;16.40;;
54145;SDS011;40052;49.422;7.738;2022-08-18T10:21:11;19.70;;;15.52;;
54145;SDS011;40052;49.422;7.738;2022-08-18T10:23:43;19.85;;;16.02;;
54145;SDS011;40052;49.422;7.738;2022-08-18T10:37:26;20.55;;;15.23;;
54145;SDS011;40052;49.422;7.738;2022-08-18T10:43:25;19.77;;;15.15;;
54145;SDS011;40052;49.422;7.738;2022-08-18T10:45:33;25.27;;;16.95;;
54145;SDS011;40052;49.422;7.738;2022-08-18T10:50:29;20.60;;;15.20;;
54145;SDS011;40052;49.422;7.738;2022-08-18T10:53:22;18.77;;;14.30;;
54145;SDS011;40052;49.422;7.738;2022-08-18T11:01:48;19.23;;;13.90;;
54145;SDS011;40052;49.422;7.738;2022-08-18T11:04:27;20.52;;;15.75;;
54145;SDS011;40052;49.422;7.738;2022-08-18T11:09:30;23.20;;;17.40;;
54145;SDS011;40052;49.422;7.738;2022-08-18T11:12:00;19.27;;;14.50;;
54145;SDS011;40052;49.422;7.738;2022-08-18T11:14:49;18.85;;;14.82;;
54145;SDS011;40052;49.422;7.738;2022-08-18T11:19:56;18.92;;;15.52;;
54145;SDS011;40052;49.422;7.738;2022-08-18T11:22:26;19.58;;;16.48;;
54145;SDS011;40052;49.422;7.738;2022-08-18T11:24:56;19.80;;;14.85;;
54145;SDS011;40052;49.422;7.738;2022-08-18T11:27:27;20.08;;;15.07;;
54145;SDS011;40052;49.422;7.738;2022-08-18T11:30:00;20.17;;;15.27;;
54145;SDS011;40052;49.422;7.738;2022-08-18T11:39:56;19.88;;;16.38;;
54145;SDS011;40052;49.422;7.738;2022-08-18T11:42:34;19.70;;;14.90;;
54145;SDS011;40052;49.422;7.738;2022-08-18T11:45:05;25.08;;;17.02;;
54145;SDS011;40052;49.422;7.738;2022-08-18T11:48:00;21.90;;;16.80;;
54145;SDS011;40052;49.422;7.738;2022-08-18T11:53:12;23.88;;;16.55;;
54145;SDS011;40052;49.422;7.738;2022-08-18T11:55:42;22.25;;;16.55;;
54145;SDS011;40052;49.422;7.738;2022-08-18T11:58:08;36.20;;;27.27;;
54145;SDS011;40052;49.422;7.738;2022-08-18T12:00:55;112.53;;;48.85;;
54145;SDS011;40052;49.422;7.738;2022-08-18T12:06:35;37.75;;;28.73;;
54145;SDS011;40052;49.422;7.738;2022-08-18T12:09:02;30.30;;;21.08;;
54145;SDS011;40052;49.422;7.738;2022-08-18T12:11:33;24.13;;;18.77;;
54145;SDS011;40052;49.422;7.738;2022-08-18T12:14:06;25.88;;;18.25;;
54145;SDS011;40052;49.422;7.738;2022-08-18T12:19:04;34.05;;;20.90;;
54145;SDS011;40052;49.422;7.738;2022-08-18T12:21:31;28.92;;;19.25;;
54145;SDS011;40052;49.422;7.738;2022-08-18T12:23:57;28.85;;;20.25;;
54145;SDS011;40052;49.422;7.738;2022-08-18T12:26:23;40.95;;;23.52;;
54145;SDS011;40052;49.422;7.738;2022-08-18T12:28:48;57.10;;;32.05;;
54145;SDS011;40052;49.422;7.738;2022-08-18T12:31:16;30.70;;;18.83;;
54145;SDS011;40052;49.422;7.738;2022-08-18T12:33:42;55.92;;;44.22;;
54145;SDS011;40052;49.422;7.738;2022-08-18T12:36:07;102.68;;;62.58;;
54145;SDS011;40052;49.422;7.738;2022-08-18T12:38:36;26.58;;;17.83;;
54145;SDS011;40052;49.422;7.738;2022-08-18T12:41:11;109.38;;;44.22;;
54145;SDS011;40052;49.422;7.738;2022-08-18T12:43:41;85.65;;;37.70;;
54145;SDS011;40052;49.422;7.738;2022-08-18T12:46:09;21.35;;;16.13;;
54145;SDS011;40052;49.422;7.738;2022-08-18T12:48:34;28.92;;;18.65;;
54145;SDS011;40052;49.422;7.738;2022-08-18T12:51:03;33.95;;;21.92;;
54145;SDS011;40052;49.422;7.738;2022-08-18T12:53:30;21.45;;;15.63;;
54145;SDS011;40052;49.422;7.738;2022-08-18T12:55:55;23.48;;;16.90;;
54145;SDS011;40052;49.422;7.738;2022-08-18T12:58:24;23.63;;;17.67;;
54145;SDS011;40052;49.422;7.738;2022-08-18T13:00:49;24.17;;;17.55;;
54145;SDS011;40052;49.422;7.738;2022-08-18T13:03:14;23.27;;;16.70;;
54145;SDS011;40052;49.422;7.738;2022-08-18T13:05:43;27.60;;;18.25;;
54145;SDS011;40052;49.422;7.738;2022-08-18T13:08:12;17.85;;;14.35;;
54145;SDS011;40052;49.422;7.738;2022-08-18T13:10:42;20.38;;;15.43;;
54145;SDS011;40052;49.422;7.738;2022-08-18T13:13:10;18.15;;;15.05;;
54145;SDS011;40052;49.422;7.738;2022-08-18T13:15:38;18.95;;;15.38;;
54145;SDS011;40052;49.422;7.738;2022-08-18T13:18:03;21.92;;;14.93;;
54145;SDS011;40052;49.422;7.738;2022-08-18T13:20:28;17.55;;;13.55;;
54145;SDS011;40052;49.422;7.738;2022-08-18T13:22:56;15.57;;;13.25;;
54145;SDS011;40052;49.422;7.738;2022-08-18T13:25:24;15.00;;;12.50;;
54145;SDS011;40052;49.422;7.738;2022-08-18T13:27:51;18.17;;;13.05;;
54145;SDS011;40052;49.422;7.738;2022-08-18T13:30:16;20.42;;;14.98;;
54145;SDS011;40052;49.422;7.738;2022-08-18T13:32:42;16.15;;;13.80;;
54145;SDS011;40052;49.422;7.738;2022-08-18T13:35:08;18.15;;;12.95;;
54145;SDS011;40052;49.422;7.738;2022-08-18T13:37:34;18.58;;;13.77;;
54145;SDS011;40052;49.422;7.738;2022-08-18T13:40:00;18.60;;;13.52;;
54145;SDS011;40052;49.422;7.738;2022-08-18T13:42:25;16.63;;;13.75;;
54145;SDS011;40052;49.422;7.738;2022-08-18T13:44:53;16.95;;;13.02;;
54145;SDS011;40052;49.422;7.738;2022-08-18T13:47:22;18.95;;;13.93;;
54145;SDS011;40052;49.422;7.738;2022-08-18T13:49:48;17.70;;;14.32;;
54145;SDS011;40052;49.422;7.738;2022-08-18T13:52:13;17.60;;;13.90;;
54145;SDS011;40052;49.422;7.738;2022-08-18T13:54:38;18.42;;;13.98;;
54145;SDS011;40052;49.422;7.738;2022-08-18T13:57:07;14.70;;;12.70;;
54145;SDS011;40052;49.422;7.738;2022-08-18T13:59:32;16.42;;;13.43;;
54145;SDS011;40052;49.422;7.738;2022-08-18T14:02:03;15.57;;;13.98;;
54145;SDS011;40052;49.422;7.738;2022-08-18T14:04:32;16.80;;;12.70;;
54145;SDS011;40052;49.422;7.738;2022-08-18T14:06:57;16.58;;;14.73;;
54145;SDS011;40052;49.422;7.738;2022-08-18T14:09:25;17.73;;;14.48;;
54145;SDS011;40052;49.422;7.738;2022-08-18T14:11:51;15.35;;;12.95;;
54145;SDS011;40052;49.422;7.738;2022-08-18T14:14:22;14.25;;;11.52;;
54145;SDS011;40052;49.422;7.738;2022-08-18T14:16:48;13.05;;;11.20;;
54145;SDS011;40052;49.422;7.738;2022-08-18T14:19:13;14.10;;;12.13;;
54145;SDS011;40052;49.422;7.738;2022-08-18T14:21:57;13.90;;;12.50;;
54145;SDS011;40052;49.422;7.738;2022-08-18T14:24:41;13.85;;;11.30;;
54145;SDS011;40052;49.422;7.738;2022-08-18T14:27:27;15.13;;;12.00;;
54145;SDS011;40052;49.422;7.738;2022-08-18T14:32:27;18.10;;;13.07;;
54145;SDS011;40052;49.422;7.738;2022-08-18T14:34:59;15.35;;;12.63;;
54145;SDS011;40052;49.422;7.738;2022-08-18T14:37:27;17.40;;;13.45;;
54145;SDS011;40052;49.422;7.738;2022-08-18T14:39:57;17.35;;;13.63;;
54145;SDS011;40052;49.422;7.738;2022-08-18T14:42:23;15.55;;;13.52;;
54145;SDS011;40052;49.422;7.738;2022-08-18T14:44:49;16.65;;;13.00;;
54145;SDS011;40052;49.422;7.738;2022-08-18T14:47:19;13.90;;;11.43;;
54145;SDS011;40052;49.422;7.738;2022-08-18T14:49:44;15.63;;;12.15;;
54145;SDS011;40052;49.422;7.738;2022-08-18T14:52:13;17.67;;;11.13;;
54145;SDS011;40052;49.422;7.738;2022-08-18T14:54:38;10.05;;;8.50;;
54145;SDS011;40052;49.422;7.738;2022-08-18T14:57:04;8.98;;;7.97;;
54145;SDS011;40052;49.422;7.738;2022-08-18T14:59:33;10.48;;;9.02;;
54145;SDS011;40052;49.422;7.738;2022-08-18T15:01:59;10.10;;;9.05;;
54145;SDS011;40052;49.422;7.738;2022-08-18T15:04:27;9.70;;;8.40;;
54145;SDS011;40052;49.422;7.738;2022-08-18T15:06:52;9.77;;;8.77;;
54145;SDS011;40052;49.422;7.738;2022-08-18T15:09:18;10.10;;;8.25;;
54145;SDS011;40052;49.422;7.738;2022-08-18T15:11:46;10.15;;;8.60;;
54145;SDS011;40052;49.422;7.738;2022-08-18T15:14:12;12.20;;;9.15;;
54145;SDS011;40052;49.422;7.738;2022-08-18T15:16:41;11.45;;;8.65;;
54145;SDS011;40052;49.422;7.738;2022-08-18T15:19:06;10.05;;;8.73;;
54145;SDS011;40052;49.422;7.738;2022-08-18T15:21:32;10.75;;;9.45;;
54145;SDS011;40052;49.422;7.738;2022-08-18T15:24:16;11.23;;;9.30;;
54145;SDS011;40052;49.422;7.738;2022-08-18T15:27:00;10.10;;;8.82;;
54145;SDS011;40052;49.422;7.738;2022-08-18T15:29:27;11.63;;;10.20;;
54145;SDS011;40052;49.422;7.738;2022-08-18T15:31:56;13.20;;;11.02;;
54145;SDS011;40052;49.422;7.738;2022-08-18T15:34:23;10.13;;;9.13;;
54145;SDS011;40052;49.422;7.738;2022-08-18T15:36:50;10.55;;;8.73;;
54145;SDS011;40052;49.422;7.738;2022-08-18T15:39:17;9.20;;;8.30;;
54145;SDS011;40052;49.422;7.738;2022-08-18T15:41:43;10.55;;;8.77;;
54145;SDS011;40052;49.422;7.738;2022-08-18T15:44:15;8.95;;;8.02;;
54145;SDS011;40052;49.422;7.738;2022-08-18T15:46:44;9.50;;;8.40;;
54145;SDS011;40052;49.422;7.738;2022-08-18T15:49:12;10.35;;;9.30;;
54145;SDS011;40052;49.422;7.738;2022-08-18T15:51:38;10.98;;;9.65;;
54145;SDS011;40052;49.422;7.738;2022-08-18T15:54:06;11.35;;;10.18;;
54145;SDS011;40052;49.422;7.738;2022-08-18T15:56:35;10.57;;;9.35;;
54145;SDS011;40052;49.422;7.738;2022-08-18T15:59:03;9.30;;;8.30;;
54145;SDS011;40052;49.422;7.738;2022-08-18T16:01:30;10.77;;;9.27;;
54145;SDS011;40052;49.422;7.738;2022-08-18T16:03:56;10.90;;;8.80;;
54145;SDS011;40052;49.422;7.738;2022-08-18T16:06:25;9.93;;;8.70;;
54145;SDS011;40052;49.422;7.738;2022-08-18T16:08:51;9.90;;;8.88;;
54145;SDS011;40052;49.422;7.738;2022-08-18T16:11:17;8.15;;;7.32;;
54145;SDS011;40052;49.422;7.738;2022-08-18T16:13:46;9.02;;;8.07;;
54145;SDS011;40052;49.422;7.738;2022-08-18T16:16:17;8.73;;;7.93;;
54145;SDS011;40052;49.422;7.738;2022-08-18T16:18:47;9.95;;;8.63;;
54145;SDS011;40052;49.422;7.738;2022-08-18T16:21:14;10.27;;;9.20;;
54145;SDS011;40052;49.422;7.738;2022-08-18T16:23:43;9.43;;;8.48;;
54145;SDS011;40052;49.422;7.738;2022-08-18T16:26:13;10.85;;;8.43;;
54145;SDS011;40052;49.422;7.738;2022-08-18T16:28:45;9.15;;;8.25;;
54145;SDS011;40052;49.422;7.738;2022-08-18T16:31:15;11.07;;;9.32;;
54145;SDS011;40052;49.422;7.738;2022-08-18T16:33:41;10.40;;;8.80;;
54145;SDS011;40052;49.422;7.738;2022-08-18T16:36:07;9.57;;;8.60;;
54145;SDS011;40052;49.422;7.738;2022-08-18T16:38:35;10.10;;;8.35;;
54145;SDS011;40052;49.422;7.738;2022-08-18T16:41:03;9.27;;;8.20;;
54145;SDS011;40052;49.422;7.738;2022-08-18T16:43:31;9.77;;;8.77;;
54145;SDS011;40052;49.422;7.738;2022-08-18T16:45:57;9.90;;;8.90;;
54145;SDS011;40052;49.422;7.738;2022-08-18T16:48:26;9.48;;;8.57;;
54145;SDS011;40052;49.422;7.738;2022-08-18T16:50:54;11.00;;;8.10;;
54145;SDS011;40052;49.422;7.738;2022-08-18T16:53:23;9.25;;;8.35;;
54145;SDS011;40052;49.422;7.738;2022-08-18T16:55:48;9.48;;;8.43;;
54145;SDS011;40052;49.422;7.738;2022-08-18T16:58:16;9.27;;;7.60;;
54145;SDS011;40052;49.422;7.738;2022-08-18T17:01:00;10.02;;;8.63;;
54145;SDS011;40052;49.422;7.738;2022-08-18T17:03:44;8.80;;;7.90;;
54145;SDS011;40052;49.422;7.738;2022-08-18T17:06:28;10.27;;;9.18;;
54145;SDS011;40052;49.422;7.738;2022-08-18T17:08:54;9.73;;;8.77;;
54145;SDS011;40052;49.422;7.738;2022-08-18T17:11:23;10.90;;;9.80;;
54145;SDS011;40052;49.422;7.738;2022-08-18T17:13:53;10.43;;;9.38;;
54145;SDS011;40052;49.422;7.738;2022-08-18T17:16:21;10.88;;;9.40;;
54145;SDS011;40052;49.422;7.738;2022-08-18T17:18:53;14.52;;;10.98;;
54145;SDS011;40052;49.422;7.738;2022-08-18T17:21:20;12.70;;;10.55;;
54145;SDS011;40052;49.422;7.738;2022-08-18T17:23:48;11.88;;;10.38;;
54145;SDS011;40052;49.422;7.738;2022-08-18T17:29:21;12.32;;;10.32;;
54145;SDS011;40052;49.422;7.738;2022-08-18T17:32:05;11.95;;;10.70;;
54145;SDS011;40052;49.422;7.738;2022-08-18T17:34:38;11.70;;;10.52;;
54145;SDS011;40052;49.422;7.738;2022-08-18T17:37:07;13.40;;;10.43;;
54145;SDS011;40052;49.422;7.738;2022-08-18T17:39:43;11.75;;;10.27;;
54145;SDS011;40052;49.422;7.738;2022-08-18T17:42:15;14.23;;;11.05;;
54145;SDS011;40052;49.422;7.738;2022-08-18T17:47:22;14.40;;;11.40;;
54145;SDS011;40052;49.422;7.738;2022-08-18T17:49:57;11.98;;;10.57;;
54145;SDS011;40052;49.422;7.738;2022-08-18T17:52:46;11.98;;;10.50;;
54145;SDS011;40052;49.422;7.738;2022-08-18T17:55:17;14.95;;;11.88;;
54145;SDS011;40052;49.422;7.738;2022-08-18T17:57:53;13.13;;;11.45;;
54145;SDS011;40052;49.422;7.738;2022-08-18T18:00:27;11.95;;;10.75;;
54145;SDS011;40052;49.422;7.738;2022-08-18T18:02:55;14.13;;;10.73;;
54145;SDS011;40052;49.422;7.738;2022-08-18T18:05:31;13.10;;;11.18;;